createdAt,value
2023-11-10T00:00:25.948Z,64.55
2023-11-10T00:02:52.651Z,64.30
2023-11-10T00:05:19.423Z,64.12
2023-11-10T00:07:46.026Z,64.80
2023-11-10T00:10:12.530Z,64.87
2023-11-10T00:12:39.103Z,65.23
2023-11-10T00:15:05.668Z,65.26
2023-11-10T00:17:32.185Z,64.95
2023-11-10T00:19:58.698Z,65.82
2023-11-10T00:22:25.253Z,66.40
2023-11-10T00:24:51.743Z,64.63
2023-11-10T00:27:18.381Z,63.08
2023-11-10T00:29:44.982Z,63.89
2023-11-10T00:32:11.508Z,64.57
2023-11-10T00:34:38.011Z,63.61
2023-11-10T00:37:04.538Z,63.24
2023-11-10T00:39:31.133Z,63.38
2023-11-10T00:41:57.678Z,64.13
2023-11-10T00:44:24.202Z,64.19
2023-11-10T00:46:50.669Z,65.11
2023-11-10T00:49:17.147Z,65.88
2023-11-10T00:51:43.697Z,66.19
2023-11-10T00:54:10.232Z,65.74
2023-11-10T00:56:36.758Z,65.83
2023-11-10T00:59:03.295Z,66.00
2023-11-10T01:01:32.755Z,66.15
2023-11-10T01:03:59.302Z,65.91
2023-11-10T01:06:25.932Z,66.44
2023-11-10T01:08:52.502Z,66.71
2023-11-10T01:11:18.988Z,66.21
2023-11-10T01:13:45.467Z,65.24
2023-11-10T01:16:12.060Z,66.20
2023-11-10T01:18:38.585Z,66.55
2023-11-10T01:21:05.086Z,66.79
2023-11-10T01:23:31.610Z,66.72
2023-11-10T01:25:58.171Z,66.50
2023-11-10T01:28:24.732Z,67.00
2023-11-10T01:30:54.202Z,66.95
2023-11-10T01:33:20.843Z,67.75
2023-11-10T01:35:50.125Z,67.62
2023-11-10T01:38:16.646Z,68.13
2023-11-10T01:40:43.146Z,68.22
2023-11-10T01:43:09.652Z,68.87
2023-11-10T01:45:36.253Z,69.73
2023-11-10T01:48:02.807Z,69.10
2023-11-10T01:50:29.344Z,69.89
2023-11-10T01:52:56.027Z,69.47
2023-11-10T01:55:22.584Z,69.44
2023-11-10T01:57:49.105Z,68.79
2023-11-10T02:00:15.660Z,67.79
2023-11-10T02:02:42.383Z,68.70
2023-11-10T02:05:09.009Z,68.43
2023-11-10T02:07:35.523Z,67.84
2023-11-10T02:10:02.042Z,67.85
2023-11-10T02:12:28.589Z,67.33
2023-11-10T02:14:55.149Z,67.20
2023-11-10T02:17:21.763Z,65.77
2023-11-10T02:19:48.358Z,66.31
2023-11-10T02:22:14.962Z,66.13
2023-11-10T02:24:41.610Z,66.92
2023-11-10T02:27:08.095Z,67.46
2023-11-10T02:29:34.559Z,67.67
2023-11-10T02:32:00.966Z,67.62
2023-11-10T02:34:27.499Z,66.58
2023-11-10T02:36:54.060Z,66.32
2023-11-10T02:39:20.617Z,67.44
2023-11-10T02:41:47.049Z,68.31
2023-11-10T02:44:13.544Z,67.61
2023-11-10T02:46:40.082Z,66.50
2023-11-10T02:49:07.653Z,67.08
2023-11-10T02:51:34.132Z,66.82
2023-11-10T02:54:00.608Z,67.20
2023-11-10T02:56:27.054Z,67.50
2023-11-10T02:58:53.579Z,67.71
2023-11-10T03:01:20.150Z,67.86
2023-11-10T03:03:46.728Z,69.24
2023-11-10T03:06:13.351Z,68.71
2023-11-10T03:08:39.927Z,68.49
2023-11-10T03:11:06.479Z,67.73
2023-11-10T03:13:33.104Z,68.10
2023-11-10T03:15:59.638Z,68.13
2023-11-10T03:18:26.250Z,67.85
2023-11-10T03:20:52.838Z,67.68
2023-11-10T03:23:19.367Z,68.38
2023-11-10T03:25:45.880Z,68.19
2023-11-10T03:28:12.431Z,68.57
2023-11-10T03:30:38.999Z,68.41
2023-11-10T03:33:05.593Z,68.42
2023-11-10T03:35:32.133Z,68.65
2023-11-10T03:37:58.667Z,68.87
2023-11-10T03:40:25.117Z,69.63
2023-11-10T03:42:51.649Z,69.88
2023-11-10T03:45:18.193Z,69.51
2023-11-10T03:47:44.736Z,68.86
2023-11-10T03:50:11.243Z,69.83
2023-11-10T03:52:37.728Z,70.82
2023-11-10T03:55:06.071Z,71.15
2023-11-10T03:57:32.665Z,70.57
2023-11-10T03:59:59.140Z,70.92
2023-11-10T04:02:25.616Z,71.00
2023-11-10T04:04:52.225Z,71.42
2023-11-10T04:07:18.876Z,71.43
2023-11-10T04:09:45.379Z,70.79
2023-11-10T04:12:12.137Z,71.53
2023-11-10T04:14:38.703Z,72.01
2023-11-10T04:17:05.188Z,72.25
2023-11-10T04:19:31.655Z,72.86
2023-11-10T04:21:58.265Z,75.14
2023-11-10T04:24:24.761Z,75.53
2023-11-10T04:26:51.274Z,76.58
2023-11-10T04:29:17.767Z,77.73
2023-11-10T04:31:44.312Z,78.21
2023-11-10T04:34:10.851Z,79.46
2023-11-10T04:36:37.471Z,80.21
2023-11-10T04:39:04.019Z,81.05
2023-11-10T04:41:30.656Z,80.82
2023-11-10T04:43:57.089Z,80.74
2023-11-10T04:46:23.693Z,79.65
2023-11-10T04:48:50.229Z,79.34
2023-11-10T04:51:16.820Z,79.17
2023-11-10T04:53:43.345Z,79.17
2023-11-10T04:56:09.865Z,78.91
2023-11-10T04:58:36.322Z,78.67
2023-11-10T05:01:02.946Z,78.42
2023-11-10T05:03:31.548Z,78.18
2023-11-10T05:05:58.153Z,77.14
2023-11-10T05:08:24.623Z,75.67
2023-11-10T05:10:51.168Z,76.32
2023-11-10T05:13:17.630Z,75.80
2023-11-10T05:15:44.167Z,76.85
2023-11-10T05:18:10.720Z,75.42
2023-11-10T05:20:37.272Z,76.74
2023-11-10T05:23:06.491Z,76.03
2023-11-10T05:25:33.005Z,73.86
2023-11-10T05:28:01.696Z,73.88
2023-11-10T05:30:28.583Z,73.24
2023-11-10T05:32:55.141Z,75.62
2023-11-10T05:35:21.721Z,75.28
2023-11-10T05:37:48.263Z,71.96
2023-11-10T05:40:14.828Z,74.15
2023-11-10T05:42:41.387Z,75.13
2023-11-10T05:45:07.891Z,75.97
2023-11-10T05:47:34.422Z,76.33
2023-11-10T05:50:00.934Z,77.48
2023-11-10T05:52:27.426Z,76.91
2023-11-10T05:54:53.992Z,77.28
2023-11-10T05:57:20.557Z,76.89
2023-11-10T05:59:47.034Z,77.35
2023-11-10T06:02:13.473Z,76.97
2023-11-10T06:04:40.011Z,77.03
2023-11-10T06:07:06.546Z,77.80
2023-11-10T06:09:33.283Z,77.05
2023-11-10T06:12:00.184Z,77.01
2023-11-10T06:14:26.594Z,77.52
2023-11-10T06:16:53.319Z,77.26
2023-11-10T06:19:23.057Z,77.25
2023-11-10T06:21:52.449Z,76.66
2023-11-10T06:24:18.975Z,76.85
2023-11-10T06:26:45.546Z,77.16
2023-11-10T06:29:12.036Z,75.94
2023-11-10T06:31:38.596Z,76.42
2023-11-10T06:34:05.159Z,76.29
2023-11-10T06:36:31.728Z,76.14
2023-11-10T06:38:58.205Z,76.89
2023-11-10T06:41:24.698Z,76.74
2023-11-10T06:43:51.169Z,75.98
2023-11-10T06:46:17.720Z,76.50
2023-11-10T06:48:44.227Z,75.30
2023-11-10T06:51:10.841Z,74.45
2023-11-10T06:53:37.364Z,75.33
2023-11-10T06:56:03.891Z,75.81
2023-11-10T06:58:30.419Z,76.03
2023-11-10T07:00:57.361Z,75.95
2023-11-10T07:03:24.086Z,76.56
2023-11-10T07:05:50.737Z,76.10
2023-11-10T07:08:17.245Z,73.76
2023-11-10T07:10:45.981Z,73.11
2023-11-10T07:13:12.895Z,71.03
2023-11-10T07:15:39.433Z,70.58
2023-11-10T07:18:06.072Z,70.52
2023-11-10T07:20:32.600Z,71.14
2023-11-10T07:22:59.035Z,71.57
2023-11-10T07:25:25.463Z,72.23
2023-11-10T07:27:52.069Z,70.17
2023-11-10T07:30:18.587Z,70.25
2023-11-10T07:32:45.080Z,71.71
2023-11-10T07:35:11.563Z,73.67
2023-11-10T07:37:37.966Z,73.48
2023-11-10T07:40:04.468Z,74.12
2023-11-10T07:42:30.929Z,73.69
2023-11-10T07:44:57.443Z,74.34
2023-11-10T07:47:24.038Z,74.79
2023-11-10T07:49:50.503Z,75.31
2023-11-10T07:52:16.896Z,74.69
2023-11-10T07:54:43.310Z,75.05
2023-11-10T07:57:09.731Z,74.27
2023-11-10T07:59:36.130Z,73.79
2023-11-10T08:02:02.562Z,74.63
2023-11-10T08:04:29.121Z,74.57
2023-11-10T08:06:55.661Z,74.17
2023-11-10T08:09:22.151Z,73.82
2023-11-10T08:11:53.154Z,73.56
2023-11-10T08:14:21.793Z,74.08
2023-11-10T08:16:50.009Z,74.67
2023-11-10T08:19:16.815Z,75.07
2023-11-10T08:21:43.269Z,74.46
2023-11-10T08:24:09.732Z,74.58
2023-11-10T08:26:36.147Z,74.89
2023-11-10T08:29:02.697Z,74.69
2023-11-10T08:31:29.208Z,75.16
2023-11-10T08:33:56.399Z,73.67
2023-11-10T08:36:23.104Z,69.12
2023-11-10T08:38:49.606Z,73.42
2023-11-10T08:41:16.009Z,73.70
2023-11-10T08:43:42.441Z,73.78
2023-11-10T08:46:08.907Z,72.59
2023-11-10T08:48:35.425Z,71.24
2023-11-10T08:51:01.891Z,70.81
2023-11-10T08:53:28.388Z,71.67
2023-11-10T08:55:54.875Z,72.05
2023-11-10T08:58:21.348Z,72.52
2023-11-10T09:00:47.842Z,69.57
2023-11-10T09:03:14.476Z,68.49
2023-11-10T09:05:41.023Z,66.32
2023-11-10T09:08:07.498Z,66.95
2023-11-10T09:10:33.959Z,66.70
2023-11-10T09:13:00.503Z,64.17
2023-11-10T09:15:26.958Z,63.67
2023-11-10T09:17:53.452Z,64.93
2023-11-10T09:20:19.965Z,65.93
2023-11-10T09:22:46.420Z,65.07
2023-11-10T09:25:13.193Z,65.89
2023-11-10T09:27:41.152Z,64.55
2023-11-10T09:30:07.704Z,64.63
2023-11-10T09:32:34.249Z,64.44
2023-11-10T09:35:00.886Z,63.68
2023-11-10T09:37:27.471Z,64.86
2023-11-10T09:39:55.974Z,68.59
2023-11-10T09:42:23.733Z,68.63
2023-11-10T09:44:50.225Z,68.77
2023-11-10T09:47:16.786Z,69.51
2023-11-10T09:49:45.177Z,69.93
2023-11-10T09:52:14.700Z,70.86
2023-11-10T09:54:41.321Z,70.44
2023-11-10T09:57:07.840Z,70.02
2023-11-10T09:59:34.385Z,70.82
2023-11-10T10:02:01.037Z,71.67
2023-11-10T10:04:27.710Z,70.06
2023-11-10T10:06:57.369Z,69.74
2023-11-10T10:09:25.489Z,71.03
2023-11-10T10:11:57.209Z,70.85
2023-11-10T10:14:29.575Z,70.30
2023-11-10T10:16:57.218Z,70.97
2023-11-10T10:19:23.806Z,70.75
2023-11-10T10:21:53.063Z,70.25
2023-11-10T10:24:20.784Z,69.46
2023-11-10T10:26:47.408Z,69.88
2023-11-10T10:29:13.943Z,70.64
2023-11-10T10:31:42.713Z,70.68
2023-11-10T10:34:09.472Z,71.14
2023-11-10T10:36:36.008Z,70.48
2023-11-10T10:39:02.561Z,70.63
2023-11-10T10:41:29.108Z,70.50
2023-11-10T10:44:06.143Z,70.49
2023-11-10T10:46:37.030Z,70.56
2023-11-10T10:49:03.801Z,70.46
2023-11-10T10:51:30.464Z,71.18
2023-11-10T10:53:57.042Z,71.66
2023-11-10T10:56:34.413Z,70.64
2023-11-10T10:59:09.038Z,71.20
2023-11-10T11:01:35.684Z,71.53
2023-11-10T11:04:02.329Z,71.11
2023-11-10T11:06:28.996Z,70.87
2023-11-10T11:08:55.603Z,70.86
2023-11-10T11:11:22.117Z,71.29
2023-11-10T11:13:48.715Z,71.36
2023-11-10T11:16:15.405Z,71.12
2023-11-10T11:18:42.055Z,70.66
2023-11-10T11:21:08.568Z,71.15
2023-11-10T11:23:35.121Z,70.66
2023-11-10T11:26:01.653Z,70.20
2023-11-10T11:28:28.194Z,70.56
2023-11-10T11:30:54.750Z,70.57
2023-11-10T11:33:21.423Z,70.22
2023-11-10T11:35:48.916Z,70.47
2023-11-10T11:38:16.055Z,70.33
2023-11-10T11:40:42.595Z,70.89
2023-11-10T11:43:09.045Z,70.40
2023-11-10T11:45:35.582Z,70.89
2023-11-10T11:48:02.087Z,71.06
2023-11-10T11:50:30.138Z,70.29
2023-11-10T11:52:56.667Z,70.87
2023-11-10T11:55:23.150Z,70.90
2023-11-10T11:57:49.799Z,70.48
2023-11-10T12:00:16.306Z,70.29
2023-11-10T12:02:42.779Z,70.65
2023-11-10T12:05:09.268Z,70.56
2023-11-10T12:07:35.808Z,70.38
2023-11-10T12:10:02.296Z,71.10
2023-11-10T12:12:28.858Z,72.07
2023-11-10T12:14:55.400Z,72.10
2023-11-10T12:17:21.956Z,70.96
2023-11-10T12:19:48.436Z,71.12
2023-11-10T12:22:14.872Z,68.65
2023-11-10T12:24:41.333Z,69.13
2023-11-10T12:27:07.777Z,65.99
2023-11-10T12:29:34.294Z,68.69
2023-11-10T12:32:00.710Z,70.35
2023-11-10T12:34:27.232Z,67.77
2023-11-10T12:36:53.878Z,66.24
2023-11-10T12:39:20.328Z,67.79
2023-11-10T12:41:46.760Z,63.09
2023-11-10T12:46:39.938Z,64.94
2023-11-10T12:49:06.521Z,65.20
2023-11-10T12:51:34.991Z,63.06
2023-11-10T12:54:01.594Z,62.00
2023-11-10T12:56:28.059Z,61.38
2023-11-10T12:58:54.561Z,60.50
2023-11-10T13:01:21.035Z,59.48
2023-11-10T13:03:47.689Z,60.15
2023-11-10T13:06:14.231Z,59.74
2023-11-10T13:08:40.656Z,60.31
2023-11-10T13:11:07.068Z,61.00
2023-11-10T13:13:33.525Z,60.43
2023-11-10T13:16:00.049Z,58.74
2023-11-10T13:18:26.534Z,60.65
2023-11-10T13:20:53.027Z,61.33
2023-11-10T13:23:19.458Z,58.61
2023-11-10T13:25:45.879Z,59.55
2023-11-10T13:28:12.454Z,58.56
2023-11-10T13:30:38.958Z,57.10
2023-11-10T13:33:05.485Z,55.55
2023-11-10T13:35:32.088Z,55.35
2023-11-10T13:37:58.608Z,55.66
2023-11-10T13:40:25.062Z,55.93
2023-11-10T13:42:51.603Z,54.53
2023-11-10T13:45:18.150Z,53.23
2023-11-10T13:47:44.698Z,53.54
2023-11-10T13:50:11.274Z,50.74
2023-11-10T13:52:37.789Z,53.17
2023-11-10T13:55:04.342Z,51.90
2023-11-10T13:57:33.058Z,51.90
2023-11-10T14:00:00.409Z,52.11
2023-11-10T14:02:26.888Z,53.50
2023-11-10T14:04:53.447Z,53.30
2023-11-10T14:07:19.906Z,53.21
2023-11-10T14:09:46.460Z,51.59
2023-11-10T14:12:12.950Z,53.33
2023-11-10T14:14:39.404Z,52.09
2023-11-10T14:17:05.913Z,54.13
2023-11-10T14:19:32.460Z,53.85
2023-11-10T14:21:58.993Z,56.64
2023-11-10T14:24:25.534Z,58.90
2023-11-10T14:26:51.976Z,58.17
2023-11-10T14:29:18.425Z,59.04
2023-11-10T14:31:44.912Z,58.48
2023-11-10T14:34:11.361Z,58.16
2023-11-10T14:36:37.852Z,56.91
2023-11-10T14:39:04.269Z,57.34
2023-11-10T14:41:33.088Z,60.46
2023-11-10T14:44:00.378Z,61.57
2023-11-10T14:46:27.789Z,61.59
2023-11-10T14:48:54.742Z,61.50
2023-11-10T14:51:21.754Z,61.24
2023-11-10T14:53:48.310Z,61.84
2023-11-10T14:56:15.345Z,62.01
2023-11-10T14:58:42.123Z,61.81
2023-11-10T15:01:08.924Z,62.81
2023-11-10T15:03:35.712Z,62.87
2023-11-10T15:06:02.684Z,62.23
2023-11-10T15:08:32.231Z,62.52
2023-11-10T15:10:59.121Z,61.93
2023-11-10T15:13:37.863Z,61.81
2023-11-10T15:16:04.900Z,62.26
2023-11-10T15:18:31.982Z,63.18
2023-11-10T15:21:00.261Z,63.35
2023-11-10T15:23:26.907Z,63.43
2023-11-10T15:25:53.552Z,63.51
2023-11-10T15:28:20.098Z,64.46
2023-11-10T15:30:46.841Z,64.29
2023-11-10T15:33:14.210Z,65.04
2023-11-10T15:35:40.818Z,64.70
2023-11-10T15:38:12.534Z,65.37
2023-11-10T15:49:10.941Z,64.84
2023-11-10T15:51:44.996Z,65.46
2023-11-10T15:54:20.664Z,64.86
2023-11-10T15:56:47.284Z,64.89
2023-11-10T15:59:13.836Z,64.14
2023-11-10T16:01:40.580Z,61.70
2023-11-10T16:04:07.339Z,60.36
2023-11-10T16:06:34.018Z,58.63
2023-11-10T16:09:00.628Z,58.96
2023-11-10T16:11:27.185Z,60.50
2023-11-10T16:13:53.724Z,60.62
2023-11-10T16:16:20.248Z,57.47
2023-11-10T16:18:46.836Z,59.12
2023-11-10T16:21:13.354Z,60.49
2023-11-10T16:23:39.792Z,60.85
2023-11-10T16:26:06.402Z,61.53
2023-11-10T16:28:32.837Z,58.88
2023-11-10T16:30:59.319Z,57.28
2023-11-10T16:33:25.806Z,56.84
2023-11-10T16:35:52.290Z,55.71
2023-11-10T16:38:19.948Z,56.53
2023-11-10T16:40:46.539Z,56.33
2023-11-10T16:43:12.980Z,54.84
2023-11-10T16:45:39.561Z,56.83
2023-11-10T16:48:06.297Z,56.73
2023-11-10T16:50:32.795Z,57.75
2023-11-10T16:52:59.237Z,55.92
2023-11-10T16:55:25.798Z,55.68
2023-11-10T16:57:52.286Z,56.71
2023-11-10T17:00:20.718Z,57.91
2023-11-10T17:02:51.676Z,58.90
2023-11-10T17:05:19.397Z,58.45
2023-11-10T17:07:45.910Z,58.62
2023-11-10T17:10:12.423Z,56.13
2023-11-10T17:12:38.906Z,56.75
2023-11-10T17:15:05.354Z,55.42
2023-11-10T17:17:31.895Z,54.13
2023-11-10T17:19:58.417Z,54.07
2023-11-10T17:22:24.849Z,54.80
2023-11-10T17:24:51.284Z,54.08
2023-11-10T17:27:17.801Z,55.77
2023-11-10T17:29:44.350Z,57.23
2023-11-10T17:32:10.974Z,58.58
2023-11-10T17:34:37.530Z,58.93
2023-11-10T17:37:04.139Z,59.12
2023-11-10T17:39:30.711Z,56.89
2023-11-10T17:41:57.231Z,56.03
2023-11-10T17:44:23.662Z,57.04
2023-11-10T17:46:50.177Z,56.88
2023-11-10T17:49:16.742Z,57.39
2023-11-10T17:51:43.285Z,58.05
2023-11-10T17:54:09.808Z,58.36
2023-11-10T17:56:36.262Z,60.18
2023-11-10T17:59:02.677Z,60.17
2023-11-10T18:01:29.305Z,61.05
2023-11-10T18:03:55.846Z,58.47
2023-11-10T18:06:22.380Z,56.45
2023-11-10T18:08:48.853Z,54.77
2023-11-10T18:11:15.374Z,55.48
2023-11-10T18:13:46.482Z,55.43
2023-11-10T18:16:14.305Z,54.35
2023-11-10T18:18:43.793Z,53.06
2023-11-10T18:21:10.217Z,53.97
2023-11-10T18:23:36.808Z,55.27
2023-11-10T18:26:03.269Z,54.66
2023-11-10T18:28:29.713Z,54.90
2023-11-10T18:30:56.216Z,55.22
2023-11-10T18:33:22.681Z,55.31
2023-11-10T18:35:49.212Z,55.94
2023-11-10T18:38:15.769Z,54.48
2023-11-10T18:40:42.291Z,55.22
2023-11-10T18:43:08.770Z,54.14
2023-11-10T18:45:35.253Z,54.09
2023-11-10T18:48:01.711Z,54.83
2023-11-10T18:50:28.225Z,57.55
2023-11-10T18:52:54.651Z,59.68
2023-11-10T18:55:21.093Z,60.32
2023-11-10T18:57:49.857Z,62.03
2023-11-10T19:00:16.816Z,62.52
2023-11-10T19:02:43.351Z,62.41
2023-11-10T19:05:09.806Z,61.91
2023-11-10T19:07:36.326Z,61.40
2023-11-10T19:10:02.919Z,61.13
2023-11-10T19:12:29.394Z,61.28
2023-11-10T19:14:55.822Z,61.94
2023-11-10T19:17:22.285Z,62.67
2023-11-10T19:19:48.790Z,62.37
2023-11-10T19:22:15.239Z,61.03
2023-11-10T19:24:41.811Z,60.48
2023-11-10T19:27:08.259Z,59.14
2023-11-10T19:29:34.725Z,60.24
2023-11-10T19:32:01.344Z,60.51
2023-11-10T19:34:28.074Z,60.75
2023-11-10T19:36:54.597Z,59.60
2023-11-10T19:39:21.114Z,60.36
2023-11-10T19:41:47.570Z,61.20
2023-11-10T19:44:14.004Z,60.11
2023-11-10T19:46:40.586Z,59.67
2023-11-10T19:49:07.160Z,59.50
2023-11-10T19:56:32.359Z,58.90
2023-11-10T20:01:28.161Z,58.46
2023-11-10T20:03:54.630Z,58.11
2023-11-10T20:06:21.136Z,56.92
2023-11-10T20:08:47.678Z,57.03
2023-11-10T20:11:14.148Z,56.87
2023-11-10T20:13:40.561Z,57.04
2023-11-10T20:16:07.118Z,58.08
2023-11-10T20:18:33.610Z,58.12
2023-11-10T20:21:00.102Z,59.09
2023-11-10T20:23:26.600Z,59.19
2023-11-10T20:25:53.030Z,59.69
2023-11-10T20:28:19.618Z,61.11
2023-11-10T20:30:46.142Z,60.76
2023-11-10T20:33:12.721Z,61.29
2023-11-10T20:35:40.400Z,60.84
2023-11-10T20:38:06.970Z,61.01
2023-11-10T20:40:33.413Z,61.41
2023-11-10T20:42:59.931Z,60.98
2023-11-10T20:45:26.395Z,60.47
2023-11-10T20:47:52.927Z,60.50
2023-11-10T20:50:19.345Z,60.48
2023-11-10T20:52:45.944Z,59.96
2023-11-10T20:55:15.259Z,59.50
2023-11-10T20:57:41.773Z,59.34
2023-11-10T21:00:08.345Z,59.67
2023-11-10T21:02:34.805Z,58.64
2023-11-10T21:05:01.275Z,57.55
2023-11-10T21:07:27.729Z,57.35
2023-11-10T21:09:54.166Z,58.27
2023-11-10T21:12:20.656Z,59.03
2023-11-10T21:14:47.082Z,59.15
2023-11-10T21:17:13.498Z,59.57
2023-11-10T21:19:39.939Z,57.58
2023-11-10T21:22:06.434Z,57.63
2023-11-10T21:24:32.882Z,57.62
2023-11-10T21:26:59.552Z,57.76
2023-11-10T21:29:26.124Z,58.21
2023-11-10T21:31:52.666Z,59.38
2023-11-10T21:34:19.217Z,60.17
2023-11-10T21:36:45.659Z,60.82
2023-11-10T21:39:12.239Z,60.78
2023-11-10T21:41:38.867Z,60.59
2023-11-10T21:44:05.373Z,60.76
2023-11-10T21:46:31.888Z,60.76
2023-11-10T21:48:58.366Z,61.15
2023-11-10T21:51:27.810Z,62.34
2023-11-10T21:53:54.893Z,62.57
2023-11-10T21:56:21.376Z,62.25
2023-11-10T21:58:47.821Z,63.17
2023-11-10T22:01:14.206Z,64.22
2023-11-10T22:03:40.722Z,64.55
2023-11-10T22:06:07.304Z,64.47
2023-11-10T22:08:33.813Z,64.03
2023-11-10T22:11:00.333Z,63.43
2023-11-10T22:13:26.777Z,63.59
2023-11-10T22:15:53.211Z,63.75
2023-11-10T22:18:19.727Z,64.74
2023-11-10T22:20:46.265Z,63.36
2023-11-10T22:23:12.770Z,63.30
2023-11-10T22:25:42.261Z,63.77
2023-11-10T22:28:08.714Z,65.47
2023-11-10T22:30:35.455Z,65.15
2023-11-10T22:33:02.165Z,64.81
2023-11-10T22:35:31.637Z,64.68
2023-11-10T22:37:58.117Z,66.19
2023-11-10T22:40:24.580Z,65.99
2023-11-10T22:42:51.054Z,65.22
2023-11-10T22:45:17.696Z,65.69
2023-11-10T22:47:44.281Z,66.16
2023-11-10T22:50:10.940Z,65.53
2023-11-10T22:52:37.395Z,66.18
2023-11-10T22:55:03.871Z,66.05
2023-11-10T22:57:30.323Z,66.67
2023-11-10T22:59:57.132Z,65.58
2023-11-10T23:02:24.126Z,65.78
2023-11-10T23:07:32.633Z,65.33
2023-11-10T23:10:00.573Z,65.91
2023-11-10T23:12:27.094Z,65.91
2023-11-10T23:14:53.631Z,66.35
2023-11-10T23:17:20.198Z,66.17
2023-11-10T23:19:49.043Z,66.21
2023-11-10T23:22:15.808Z,66.61
2023-11-10T23:24:53.553Z,64.95
2023-11-10T23:27:27.878Z,66.17
2023-11-10T23:29:54.388Z,67.08
2023-11-10T23:32:20.931Z,66.17
2023-11-10T23:34:47.502Z,66.27
2023-11-10T23:37:14.006Z,65.37
2023-11-10T23:39:40.590Z,66.37
2023-11-10T23:42:07.114Z,66.77
2023-11-10T23:44:35.829Z,68.04
2023-11-10T23:47:03.498Z,67.69
2023-11-10T23:49:30.065Z,67.12
2023-11-10T23:51:56.574Z,68.25
2023-11-10T23:54:23.143Z,67.00
2023-11-10T23:56:49.815Z,65.48
2023-11-10T23:59:16.355Z,64.47
